Time;durP1;ratioP1;P1;durP2;ratioP2;P2;SDS_P1;SDS_P2;PMS_P1;PMS_P2;Temp;Humidity;BMP_temperature;BMP_pressure;BME280_temperature;BME280_humidity;BME280_pressure;Samples;Min_cycle;Max_cycle;Signal;HPM_P1;HPM_P2
2021/06/27 00:00:35;;;;;;;;;;;24.30;99.90;;;;;;5109166;28;19920;-74
2021/06/27 00:03:00;;;;;;;;;;;24.20;99.90;;;;;;5115083;27;19927;-74
2021/06/27 00:05:29;;;;;;;;;;;24.20;99.90;;;;;;5109558;28;20334;-74
2021/06/27 00:07:55;;;;;;;;;;;24.30;99.90;;;;;;5110829;28;19961;-74
2021/06/27 00:10:25;;;;;;;;;;;24.10;99.90;;;;;;5098676;28;20403;-74
2021/06/27 00:12:51;;;;;;;;;;;24.10;99.90;;;;;;5091895;28;19971;-74
2021/06/27 00:15:19;;;;;;;;;;;24.00;99.90;;;;;;5104860;28;20000;-74
2021/06/27 00:17:45;;;;;;;;;;;24.00;99.90;;;;;;5111252;28;19946;-74
2021/06/27 00:20:12;;;;;;;;;;;24.10;99.90;;;;;;5111326;28;19915;-74
2021/06/27 00:22:37;;;;;;;;;;;24.20;99.90;;;;;;5093556;28;19977;-74
2021/06/27 00:25:05;;;;;;;;;;;24.30;99.90;;;;;;5113090;28;20373;-75
2021/06/27 00:27:30;;;;;;;;;;;24.30;99.90;;;;;;5113123;28;19918;-75
2021/06/27 00:29:56;;;;;;;;;;;24.40;99.90;;;;;;5114602;28;19912;-76
2021/06/27 00:32:21;;;;;;;;;;;24.40;99.90;;;;;;5115577;28;19914;-75
2021/06/27 00:34:47;;;;;;;;;;;24.40;99.90;;;;;;5115206;28;19918;-75
2021/06/27 00:37:13;;;;;;;;;;;24.20;99.90;;;;;;5114803;28;19991;-75
2021/06/27 00:39:38;;;;;;;;;;;24.20;99.90;;;;;;5096243;28;19915;-75
2021/06/27 00:42:04;;;;;;;;;;;24.20;99.90;;;;;;5116632;28;19919;-75
2021/06/27 00:44:30;;;;;;;;;;;24.20;99.90;;;;;;5114554;28;19996;-74
2021/06/27 00:46:55;;;;;;;;;;;24.30;99.90;;;;;;5116796;28;19934;-76
2021/06/27 00:49:21;;;;;;;;;;;24.30;99.90;;;;;;5115966;28;20582;-75
2021/06/27 00:51:47;;;;;;;;;;;24.30;99.90;;;;;;5115902;28;19914;-75
2021/06/27 00:54:12;;;;;;;;;;;24.40;99.90;;;;;;5113979;28;19946;-75
2021/06/27 00:56:38;;;;;;;;;;;24.30;99.90;;;;;;5107815;28;19908;-75
2021/06/27 00:59:04;;;;;;;;;;;24.20;99.90;;;;;;5092210;28;19916;-76
2021/06/27 01:01:29;;;;;;;;;;;24.30;99.90;;;;;;5114122;28;20309;-74
2021/06/27 01:03:55;;;;;;;;;;;24.40;99.90;;;;;;5110644;28;19922;-75
2021/06/27 01:06:20;;;;;;;;;;;24.20;99.90;;;;;;5114268;28;20370;-76
2021/06/27 01:08:46;;;;;;;;;;;24.20;99.90;;;;;;5114415;28;19955;-75
2021/06/27 01:11:12;;;;;;;;;;;24.20;99.90;;;;;;5114287;28;19927;-73
2021/06/27 01:13:37;;;;;;;;;;;24.20;99.90;;;;;;5114277;28;19956;-76
2021/06/27 01:16:03;;;;;;;;;;;24.10;99.90;;;;;;5113939;28;20007;-75
2021/06/27 01:18:29;;;;;;;;;;;24.20;99.90;;;;;;5095453;28;19922;-75
2021/06/27 01:20:55;;;;;;;;;;;24.10;99.90;;;;;;5113932;28;19916;-75
2021/06/27 01:23:20;;;;;;;;;;;24.10;99.90;;;;;;5114913;28;19908;-75
2021/06/27 01:25:51;;;;;;;;;;;24.10;99.90;;;;;;5112035;28;20522;-74
2021/06/27 01:28:16;;;;;;;;;;;24.10;99.90;;;;;;5113390;28;19935;-76
2021/06/27 01:30:43;;;;;;;;;;;24.10;99.90;;;;;;5095591;28;20003;-74
2021/06/27 01:33:13;;;;;;;;;;;24.10;99.90;;;;;;5113932;28;20002;-74
2021/06/27 01:35:39;;;;;;;;;;;24.10;99.90;;;;;;5112853;28;19969;-74
2021/06/27 01:38:05;;;;;;;;;;;23.90;99.90;;;;;;5095100;28;19908;-76
2021/06/27 01:40:31;;;;;;;;;;;23.80;99.90;;;;;;5113323;28;19912;-75
2021/06/27 01:43:15;;;;;;;;;;;23.90;99.90;;;;;;5113872;28;19912;-74
2021/06/27 01:45:44;;;;;;;;;;;24.00;99.90;;;;;;5113268;28;19922;-74
2021/06/27 01:48:11;;;;;;;;;;;24.00;99.90;;;;;;5113288;28;19947;-75
2021/06/27 01:50:37;;;;;;;;;;;24.10;99.90;;;;;;5095069;28;19907;-75
2021/06/27 01:53:03;;;;;;;;;;;24.10;99.90;;;;;;5113061;28;19919;-74
2021/06/27 01:55:29;;;;;;;;;;;24.20;99.90;;;;;;5111629;28;19920;-74
2021/06/27 01:57:54;;;;;;;;;;;24.20;99.90;;;;;;5112693;28;19952;-74
2021/06/27 02:00:21;;;;;;;;;;;24.10;99.90;;;;;;5113441;28;19912;-74
2021/06/27 02:02:47;;;;;;;;;;;24.00;99.90;;;;;;5112831;28;19911;-73
2021/06/27 02:05:12;;;;;;;;;;;24.00;99.90;;;;;;5094868;28;19959;-74
2021/06/27 02:07:38;;;;;;;;;;;23.90;99.90;;;;;;5113269;28;19908;-74
2021/06/27 02:10:08;;;;;;;;;;;23.90;99.90;;;;;;5113191;28;20388;-75
2021/06/27 02:12:34;;;;;;;;;;;23.90;99.90;;;;;;5113453;28;19951;-75
2021/06/27 02:15:00;;;;;;;;;;;23.90;99.90;;;;;;5113757;28;19916;-75
2021/06/27 02:17:25;;;;;;;;;;;23.90;99.90;;;;;;5113759;28;19914;-75
2021/06/27 02:19:53;;;;;;;;;;;23.90;99.90;;;;;;5112641;28;19916;-75
2021/06/27 02:22:19;;;;;;;;;;;23.90;99.90;;;;;;5113385;28;19961;-73
2021/06/27 02:24:45;;;;;;;;;;;24.00;99.90;;;;;;5113802;28;19951;-75
2021/06/27 02:27:11;;;;;;;;;;;23.90;99.90;;;;;;5110839;28;19954;-74
2021/06/27 02:29:36;;;;;;;;;;;23.90;99.90;;;;;;5113351;28;19919;-75
2021/06/27 02:32:04;;;;;;;;;;;23.90;99.90;;;;;;5112223;28;19943;-75
2021/06/27 02:34:30;;;;;;;;;;;23.90;99.90;;;;;;5112864;28;19912;-75
2021/06/27 02:36:56;;;;;;;;;;;23.80;99.90;;;;;;5112330;28;20244;-75
2021/06/27 02:39:21;;;;;;;;;;;23.80;99.90;;;;;;5112233;28;19908;-75
2021/06/27 02:41:47;;;;;;;;;;;23.70;99.90;;;;;;5112483;28;19908;-75
2021/06/27 02:44:12;;;;;;;;;;;23.70;99.90;;;;;;5109746;28;19968;-75
2021/06/27 02:46:38;;;;;;;;;;;23.60;99.90;;;;;;5112259;28;19958;-75
2021/06/27 02:49:04;;;;;;;;;;;23.60;99.90;;;;;;5111746;28;19907;-75
2021/06/27 02:51:29;;;;;;;;;;;23.70;99.90;;;;;;5113628;28;19916;-75
2021/06/27 02:53:55;;;;;;;;;;;23.80;99.90;;;;;;5111951;28;20048;-75
2021/06/27 02:56:20;;;;;;;;;;;23.80;99.90;;;;;;5112018;28;19919;-75
2021/06/27 02:58:47;;;;;;;;;;;23.80;99.90;;;;;;5091305;28;20013;-74
2021/06/27 03:01:14;;;;;;;;;;;23.90;99.90;;;;;;5111304;28;19918;-75
2021/06/27 03:03:40;;;;;;;;;;;23.90;99.90;;;;;;5112293;28;19970;-75
2021/06/27 03:06:06;;;;;;;;;;;24.00;99.90;;;;;;5110378;28;19916;-75
2021/06/27 03:08:32;;;;;;;;;;;24.00;99.90;;;;;;5112088;28;20203;-73
2021/06/27 03:10:58;;;;;;;;;;;24.00;99.90;;;;;;5111510;28;20263;-74
2021/06/27 03:13:24;;;;;;;;;;;23.90;99.90;;;;;;5111818;28;19972;-75
2021/06/27 03:15:49;;;;;;;;;;;24.00;99.90;;;;;;5112561;28;19911;-75
2021/06/27 03:18:15;;;;;;;;;;;23.90;99.90;;;;;;5111960;28;19959;-75
2021/06/27 03:20:40;;;;;;;;;;;23.80;99.90;;;;;;5110978;28;20068;-75
2021/06/27 03:23:07;;;;;;;;;;;23.90;99.90;;;;;;5111747;28;19908;-76
2021/06/27 03:25:35;;;;;;;;;;;23.90;99.90;;;;;;5111650;28;20357;-75
2021/06/27 03:28:00;;;;;;;;;;;23.80;99.90;;;;;;5109261;28;20012;-76
2021/06/27 03:30:26;;;;;;;;;;;23.70;99.90;;;;;;5113317;28;20597;-75
2021/06/27 03:32:51;;;;;;;;;;;23.80;99.90;;;;;;5093790;28;20368;-75
2021/06/27 03:35:17;;;;;;;;;;;23.90;99.90;;;;;;5093616;28;19908;-75
2021/06/27 03:38:28;;;;;;;;;;;23.90;99.90;;;;;;5111535;28;19908;-75
2021/06/27 03:40:31;;;;;;;;;;;24.00;99.90;;;;;;5100940;28;19912;-76
2021/06/27 03:43:00;;;;;;;;;;;24.00;99.90;;;;;;5112050;28;20278;-76
2021/06/27 03:45:26;;;;;;;;;;;24.00;99.90;;;;;;5111800;28;20308;-75
2021/06/27 03:47:52;;;;;;;;;;;23.80;99.90;;;;;;5094707;28;20016;-76
2021/06/27 03:50:18;;;;;;;;;;;23.70;99.90;;;;;;5111453;28;19953;-75
2021/06/27 03:52:45;;;;;;;;;;;23.70;99.90;;;;;;5111445;28;19912;-75
2021/06/27 03:55:11;;;;;;;;;;;23.60;99.90;;;;;;5111771;28;19915;-76
2021/06/27 03:57:36;;;;;;;;;;;23.60;99.90;;;;;;5110392;28;19931;-75
2021/06/27 04:00:04;;;;;;;;;;;23.50;99.90;;;;;;5114134;28;20254;-75
2021/06/27 04:02:30;;;;;;;;;;;23.50;99.90;;;;;;5116597;28;20486;-75
2021/06/27 04:04:55;;;;;;;;;;;23.50;99.90;;;;;;5116427;28;19951;-74
2021/06/27 04:07:21;;;;;;;;;;;23.60;99.90;;;;;;5115795;28;20384;-76
2021/06/27 04:09:46;;;;;;;;;;;23.60;99.90;;;;;;5116559;28;20004;-74
2021/06/27 04:12:12;;;;;;;;;;;23.70;99.90;;;;;;5113695;28;19908;-75
2021/06/27 04:14:37;;;;;;;;;;;23.80;99.90;;;;;;5115073;28;19924;-75
2021/06/27 04:17:03;;;;;;;;;;;23.90;99.90;;;;;;5117030;28;20315;-74
2021/06/27 04:19:29;;;;;;;;;;;23.90;99.90;;;;;;5115084;28;19916;-76
2021/06/27 04:21:54;;;;;;;;;;;24.00;99.90;;;;;;5114651;28;19912;-73
2021/06/27 04:24:20;;;;;;;;;;;24.00;99.90;;;;;;5114752;28;19914;-73
2021/06/27 04:26:45;;;;;;;;;;;23.90;99.90;;;;;;5115059;28;19911;-73
2021/06/27 04:29:13;;;;;;;;;;;23.90;99.90;;;;;;5114836;28;20001;-73
2021/06/27 04:31:42;;;;;;;;;;;23.90;99.90;;;;;;5115571;27;19919;-74
2021/06/27 04:34:08;;;;;;;;;;;24.10;99.90;;;;;;5112915;27;20451;-74
2021/06/27 04:36:33;;;;;;;;;;;24.20;99.90;;;;;;5121185;27;19918;-73
2021/06/27 04:38:59;;;;;;;;;;;24.30;99.90;;;;;;5122585;27;19912;-74
2021/06/27 04:41:25;;;;;;;;;;;24.40;99.90;;;;;;5117520;27;19912;-73
2021/06/27 04:43:50;;;;;;;;;;;24.50;99.90;;;;;;5111216;28;19923;-74
2021/06/27 04:46:19;;;;;;;;;;;24.50;99.90;;;;;;5113831;28;19996;-71
2021/06/27 04:48:44;;;;;;;;;;;24.70;99.90;;;;;;5112158;28;20514;-73
2021/06/27 04:51:10;;;;;;;;;;;24.80;99.90;;;;;;5113453;28;19915;-72
2021/06/27 04:53:36;;;;;;;;;;;24.90;99.90;;;;;;5114650;28;19944;-72
2021/06/27 04:56:01;;;;;;;;;;;25.00;99.90;;;;;;5114178;28;19915;-72
2021/06/27 04:58:27;;;;;;;;;;;25.00;99.90;;;;;;5110840;28;19919;-73
2021/06/27 05:00:53;;;;;;;;;;;25.10;99.90;;;;;;5119141;27;20006;-72
2021/06/27 05:03:18;;;;;;;;;;;25.10;99.90;;;;;;5114458;28;20178;-73
2021/06/27 05:05:44;;;;;;;;;;;25.10;99.90;;;;;;5114563;28;19998;-73
2021/06/27 05:08:10;;;;;;;;;;;25.10;99.90;;;;;;5114832;28;19998;-72
2021/06/27 05:10:35;;;;;;;;;;;25.20;99.90;;;;;;5113357;28;20358;-72
2021/06/27 05:13:01;;;;;;;;;;;25.10;99.90;;;;;;5114342;28;19907;-73
2021/06/27 05:15:27;;;;;;;;;;;25.10;99.90;;;;;;5114118;28;19968;-72
2021/06/27 05:17:52;;;;;;;;;;;25.10;99.90;;;;;;5113596;28;20006;-71
2021/06/27 05:20:18;;;;;;;;;;;25.10;99.90;;;;;;5112621;28;20319;-71
2021/06/27 05:22:43;;;;;;;;;;;25.20;99.90;;;;;;5113165;28;20083;-72
2021/06/27 05:25:10;;;;;;;;;;;25.30;99.90;;;;;;5113577;28;20273;-72
2021/06/27 05:27:35;;;;;;;;;;;25.30;99.90;;;;;;5115642;27;20017;-72
2021/06/27 05:30:01;;;;;;;;;;;25.30;99.90;;;;;;5116611;27;20367;-72
2021/06/27 05:32:26;;;;;;;;;;;25.40;99.90;;;;;;5113668;28;19960;-73
2021/06/27 05:34:52;;;;;;;;;;;25.60;99.90;;;;;;5094659;28;20426;-72
2021/06/27 05:37:18;;;;;;;;;;;25.50;99.90;;;;;;5113146;28;20015;-72
2021/06/27 05:39:44;;;;;;;;;;;25.60;99.90;;;;;;5113459;28;20383;-71
2021/06/27 05:42:09;;;;;;;;;;;25.60;99.90;;;;;;5111050;28;19968;-72
2021/06/27 05:44:35;;;;;;;;;;;25.80;99.90;;;;;;5107107;28;19927;-73
2021/06/27 05:47:00;;;;;;;;;;;25.80;99.90;;;;;;5112434;28;19912;-73
2021/06/27 05:49:26;;;;;;;;;;;25.80;99.90;;;;;;5092954;28;19912;-73
2021/06/27 05:51:51;;;;;;;;;;;25.80;99.90;;;;;;5109237;28;20016;-73
2021/06/27 05:54:17;;;;;;;;;;;25.90;99.90;;;;;;5113985;28;19908;-71
2021/06/27 05:56:43;;;;;;;;;;;25.90;99.90;;;;;;5113241;28;20429;-72
2021/06/27 05:59:08;;;;;;;;;;;26.00;99.90;;;;;;5111545;28;19951;-72
2021/06/27 06:01:34;;;;;;;;;;;26.10;99.90;;;;;;5104207;28;20011;-73
2021/06/27 06:03:59;;;;;;;;;;;26.20;99.90;;;;;;5093279;28;19923;-73
2021/06/27 06:06:25;;;;;;;;;;;26.40;99.90;;;;;;5093217;28;19918;-73
2021/06/27 06:08:51;;;;;;;;;;;26.50;99.90;;;;;;5080818;28;19908;-72
2021/06/27 06:11:17;;;;;;;;;;;26.60;99.90;;;;;;5113113;28;19912;-72
2021/06/27 06:13:43;;;;;;;;;;;26.70;99.90;;;;;;5113339;28;19943;-72
2021/06/27 06:16:09;;;;;;;;;;;26.70;99.90;;;;;;5117409;28;19911;-71
2021/06/27 06:18:35;;;;;;;;;;;26.70;99.90;;;;;;5113213;28;19911;-72
2021/06/27 06:21:01;;;;;;;;;;;26.80;99.90;;;;;;5113548;28;19908;-73
2021/06/27 06:23:26;;;;;;;;;;;26.80;99.90;;;;;;5114661;28;19907;-73
2021/06/27 06:25:52;;;;;;;;;;;26.80;99.90;;;;;;5114101;28;19946;-72
2021/06/27 06:28:18;;;;;;;;;;;26.90;99.90;;;;;;5112836;28;19911;-74
2021/06/27 06:30:45;;;;;;;;;;;26.90;99.90;;;;;;5112885;28;20389;-74
2021/06/27 06:33:11;;;;;;;;;;;27.10;99.90;;;;;;5113863;28;19965;-74
2021/06/27 06:35:37;;;;;;;;;;;27.20;99.90;;;;;;5112782;28;20002;-70
2021/06/27 06:38:03;;;;;;;;;;;27.10;99.90;;;;;;5112624;28;20427;-71
2021/06/27 06:40:28;;;;;;;;;;;27.10;99.90;;;;;;5112306;28;19915;-70
2021/06/27 06:42:54;;;;;;;;;;;27.10;99.90;;;;;;5112367;28;19908;-70
2021/06/27 06:45:19;;;;;;;;;;;27.10;99.90;;;;;;5111158;28;21013;-69
2021/06/27 06:47:45;;;;;;;;;;;27.10;99.90;;;;;;5112716;28;19916;-72
2021/06/27 06:50:11;;;;;;;;;;;27.10;99.90;;;;;;5112606;28;19911;-69
2021/06/27 06:52:36;;;;;;;;;;;27.10;99.90;;;;;;5093961;28;19919;-70
2021/06/27 06:55:02;;;;;;;;;;;27.20;99.90;;;;;;5095977;28;19913;-70
2021/06/27 06:57:28;;;;;;;;;;;27.30;99.90;;;;;;5091705;28;20366;-69
2021/06/27 06:59:53;;;;;;;;;;;27.40;99.90;;;;;;5108019;28;19937;-67
2021/06/27 07:02:19;;;;;;;;;;;27.60;99.90;;;;;;5111447;28;19916;-68
2021/06/27 07:04:44;;;;;;;;;;;27.70;99.90;;;;;;5111624;28;20425;-71
2021/06/27 07:07:10;;;;;;;;;;;27.70;99.90;;;;;;5111674;28;19908;-69
2021/06/27 07:09:35;;;;;;;;;;;27.90;99.90;;;;;;5109407;28;19912;-68
2021/06/27 07:12:01;;;;;;;;;;;27.90;99.90;;;;;;5109625;28;20450;-69
2021/06/27 07:14:26;;;;;;;;;;;27.90;99.90;;;;;;5111383;28;19908;-70
2021/06/27 07:16:52;;;;;;;;;;;27.90;99.90;;;;;;5111124;28;19931;-69
2021/06/27 07:19:18;;;;;;;;;;;28.10;99.90;;;;;;5111109;28;19958;-69
2021/06/27 07:21:45;;;;;;;;;;;28.10;99.90;;;;;;5111385;28;19908;-70
2021/06/27 07:24:11;;;;;;;;;;;28.10;99.90;;;;;;5111406;28;19908;-70
2021/06/27 07:26:36;;;;;;;;;;;28.10;99.90;;;;;;5111232;28;19953;-69
2021/06/27 07:29:02;;;;;;;;;;;28.20;99.90;;;;;;5094075;28;20281;-68
2021/06/27 07:31:27;;;;;;;;;;;28.10;99.90;;;;;;5111098;28;19918;-68
2021/06/27 07:34:02;;;;;;;;;;;28.30;99.90;;;;;;5111447;28;19907;-69
2021/06/27 07:36:28;;;;;;;;;;;28.50;99.90;;;;;;5107875;28;20428;-69
2021/06/27 07:38:54;;;;;;;;;;;28.60;99.90;;;;;;5110060;28;19951;-69
2021/06/27 07:41:20;;;;;;;;;;;28.60;99.90;;;;;;5110112;28;19967;-70
2021/06/27 07:43:48;;;;;;;;;;;28.60;99.90;;;;;;5111667;28;19912;-71
2021/06/27 07:46:14;;;;;;;;;;;28.60;99.90;;;;;;5111409;28;19977;-70
2021/06/27 07:48:40;;;;;;;;;;;28.60;99.90;;;;;;5110797;28;19919;-69
2021/06/27 07:51:05;;;;;;;;;;;28.80;99.90;;;;;;5111803;28;19977;-70
2021/06/27 07:53:31;;;;;;;;;;;28.90;99.90;;;;;;5110415;28;19918;-72
2021/06/27 07:55:57;;;;;;;;;;;29.00;99.90;;;;;;5110013;28;20335;-71
2021/06/27 07:58:22;;;;;;;;;;;29.00;99.90;;;;;;5110475;28;19969;-71
2021/06/27 08:00:48;;;;;;;;;;;29.00;99.90;;;;;;5110710;28;19912;-69
2021/06/27 08:03:13;;;;;;;;;;;29.10;99.90;;;;;;5110951;28;20015;-70
2021/06/27 08:05:39;;;;;;;;;;;29.20;99.90;;;;;;5110811;28;20365;-70
2021/06/27 08:08:05;;;;;;;;;;;29.20;99.90;;;;;;5110509;28;19907;-71
2021/06/27 08:10:30;;;;;;;;;;;29.20;99.90;;;;;;5111503;28;20468;-71
2021/06/27 08:12:56;;;;;;;;;;;29.30;99.90;;;;;;5109071;28;19916;-71
2021/06/27 08:15:22;;;;;;;;;;;29.30;99.90;;;;;;5082272;28;19912;-70
2021/06/27 08:17:48;;;;;;;;;;;29.40;99.90;;;;;;5110859;28;19907;-70
2021/06/27 08:20:14;;;;;;;;;;;29.30;99.90;;;;;;5110842;28;19983;-69
2021/06/27 08:22:40;;;;;;;;;;;29.20;99.90;;;;;;5110822;28;19916;-69
2021/06/27 08:25:06;;;;;;;;;;;29.20;99.90;;;;;;5110204;28;19922;-70
2021/06/27 08:27:32;;;;;;;;;;;29.10;99.90;;;;;;5110467;28;19908;-68
2021/06/27 08:29:57;;;;;;;;;;;29.00;99.90;;;;;;5109665;28;20404;-69
2021/06/27 08:32:23;;;;;;;;;;;28.90;99.90;;;;;;5098221;28;19952;-69
2021/06/27 08:34:48;;;;;;;;;;;28.90;99.90;;;;;;5109767;28;19915;-69
2021/06/27 08:37:14;;;;;;;;;;;28.90;99.90;;;;;;5108845;28;19912;-69
2021/06/27 08:39:39;;;;;;;;;;;28.90;99.90;;;;;;5110025;28;19911;-69
2021/06/27 08:42:05;;;;;;;;;;;28.90;99.90;;;;;;5108194;28;19933;-69
2021/06/27 08:44:33;;;;;;;;;;;28.90;99.90;;;;;;5098658;28;19912;-69
2021/06/27 08:47:00;;;;;;;;;;;29.10;99.90;;;;;;5113204;28;19912;-69
2021/06/27 08:49:25;;;;;;;;;;;29.10;99.90;;;;;;5111885;28;20369;-69
2021/06/27 08:51:51;;;;;;;;;;;29.10;99.90;;;;;;5107563;28;19965;-69
2021/06/27 08:54:16;;;;;;;;;;;29.20;99.90;;;;;;5111966;28;20072;-69
2021/06/27 08:56:42;;;;;;;;;;;29.20;99.90;;;;;;5113699;28;19912;-69
2021/06/27 08:59:08;;;;;;;;;;;29.20;99.90;;;;;;5095418;28;19912;-69
2021/06/27 09:01:33;;;;;;;;;;;29.20;99.90;;;;;;5113832;28;19908;-69
2021/06/27 09:03:59;;;;;;;;;;;29.20;99.90;;;;;;5094258;28;19922;-68
2021/06/27 09:06:29;;;;;;;;;;;29.20;99.90;;;;;;5122018;27;19912;-70
2021/06/27 09:09:08;;;;;;;;;;;29.10;99.90;;;;;;5113143;28;20480;-69
2021/06/27 09:11:33;;;;;;;;;;;29.00;99.90;;;;;;5113327;28;19964;-69
2021/06/27 09:13:59;;;;;;;;;;;29.00;99.90;;;;;;5113814;28;19931;-69
2021/06/27 09:16:24;;;;;;;;;;;28.90;99.90;;;;;;5113201;28;19912;-68
2021/06/27 09:18:51;;;;;;;;;;;28.90;99.90;;;;;;5112600;28;20644;-68
2021/06/27 09:21:17;;;;;;;;;;;28.90;99.90;;;;;;5095222;28;19959;-68
2021/06/27 09:23:44;;;;;;;;;;;28.90;99.90;;;;;;5109994;28;19908;-69
2021/06/27 09:26:10;;;;;;;;;;;28.90;99.90;;;;;;5114822;27;20408;-70
2021/06/27 09:28:40;;;;;;;;;;;28.90;99.90;;;;;;5110814;28;19939;-69
2021/06/27 09:31:05;;;;;;;;;;;29.10;99.90;;;;;;5113268;28;19919;-68
2021/06/27 09:33:31;;;;;;;;;;;29.00;99.90;;;;;;5113609;28;20377;-70
2021/06/27 09:35:59;;;;;;;;;;;29.10;99.90;;;;;;5093346;28;19996;-70
2021/06/27 09:38:47;;;;;;;;;;;29.00;99.90;;;;;;5114323;27;19954;-69
2021/06/27 09:41:13;;;;;;;;;;;29.10;99.90;;;;;;5114891;27;21550;-70
2021/06/27 09:43:40;;;;;;;;;;;28.80;99.90;;;;;;5114370;27;20026;-69
2021/06/27 09:46:13;;;;;;;;;;;28.60;99.90;;;;;;5112673;28;19963;-69
2021/06/27 09:48:49;;;;;;;;;;;28.50;99.90;;;;;;5094695;28;19908;-69
2021/06/27 09:51:15;;;;;;;;;;;28.50;99.90;;;;;;5113360;28;20424;-68
2021/06/27 09:53:41;;;;;;;;;;;28.60;99.90;;;;;;5113256;28;20002;-68
2021/06/27 09:56:09;;;;;;;;;;;28.60;99.90;;;;;;5113237;28;19998;-69
2021/06/27 09:58:35;;;;;;;;;;;28.50;99.90;;;;;;5092247;28;19912;-68
2021/06/27 10:01:01;;;;;;;;;;;28.50;99.90;;;;;;5111216;28;19916;-70
2021/06/27 10:03:28;;;;;;;;;;;28.50;99.90;;;;;;5112477;28;19908;-68
2021/06/27 10:06:14;;;;;;;;;;;28.60;99.90;;;;;;5094267;28;19916;-69
2021/06/27 10:08:40;;;;;;;;;;;28.50;99.90;;;;;;5092205;28;19912;-68
2021/06/27 10:11:13;;;;;;;;;;;28.70;99.90;;;;;;5098002;28;20377;-68
2021/06/27 10:13:48;;;;;;;;;;;28.70;99.90;;;;;;5112320;28;19908;-69
2021/06/27 10:16:21;;;;;;;;;;;28.70;99.90;;;;;;5107124;28;19919;-68
2021/06/27 10:18:48;;;;;;;;;;;28.70;99.90;;;;;;5111970;28;19915;-70
2021/06/27 10:21:13;;;;;;;;;;;28.60;99.90;;;;;;5112370;28;19990;-69
2021/06/27 10:23:39;;;;;;;;;;;28.70;99.90;;;;;;5112328;28;19947;-70
2021/06/27 10:26:05;;;;;;;;;;;28.70;99.90;;;;;;5112002;28;19969;-70
2021/06/27 10:28:32;;;;;;;;;;;28.80;99.90;;;;;;5111178;28;19908;-68
2021/06/27 10:30:57;;;;;;;;;;;28.50;99.90;;;;;;5111841;28;20055;-70
2021/06/27 10:33:24;;;;;;;;;;;28.50;99.90;;;;;;5112363;28;19914;-70
2021/06/27 10:35:50;;;;;;;;;;;28.30;99.90;;;;;;5111843;28;20025;-69
2021/06/27 10:38:19;;;;;;;;;;;28.20;99.90;;;;;;5111902;28;20374;-68
2021/06/27 10:40:52;;;;;;;;;;;28.10;99.90;;;;;;5111883;28;19912;-69
2021/06/27 10:43:17;;;;;;;;;;;28.20;99.90;;;;;;5111782;28;19928;-69
2021/06/27 10:45:46;;;;;;;;;;;28.20;99.90;;;;;;5112109;28;19912;-68
2021/06/27 10:48:29;;;;;;;;;;;28.30;99.90;;;;;;5111870;28;19919;-70
2021/06/27 10:50:55;;;;;;;;;;;28.50;99.90;;;;;;5112660;28;19911;-69
2021/06/27 10:53:20;;;;;;;;;;;28.80;99.90;;;;;;5112452;28;19915;-70
2021/06/27 10:55:46;;;;;;;;;;;28.70;99.90;;;;;;5111535;28;19928;-67
2021/06/27 10:58:13;;;;;;;;;;;28.80;99.90;;;;;;5108043;28;20339;-68
2021/06/27 11:00:52;;;;;;;;;;;28.90;99.90;;;;;;5111473;28;19912;-69
2021/06/27 11:03:27;;;;;;;;;;;28.80;99.90;;;;;;5091424;28;19912;-68
2021/06/27 11:05:56;;;;;;;;;;;28.70;99.90;;;;;;5091274;28;19932;-69
2021/06/27 11:08:41;;;;;;;;;;;28.60;99.90;;;;;;5090550;28;20443;-70
2021/06/27 11:11:07;;;;;;;;;;;28.60;99.90;;;;;;5091457;28;19928;-69
2021/06/27 11:13:33;;;;;;;;;;;28.50;99.90;;;;;;5092562;28;19934;-69
2021/06/27 11:16:02;;;;;;;;;;;28.40;99.90;;;;;;5111443;28;19908;-70
2021/06/27 11:18:27;;;;;;;;;;;28.50;99.90;;;;;;5110474;28;20002;-69
2021/06/27 11:20:54;;;;;;;;;;;28.70;99.90;;;;;;5111267;28;19970;-67
2021/06/27 11:23:39;;;;;;;;;;;28.80;99.90;;;;;;5111649;28;19912;-68
2021/06/27 11:26:05;;;;;;;;;;;29.00;99.90;;;;;;5111348;28;19918;-69
2021/06/27 11:28:30;;;;;;;;;;;28.90;99.90;;;;;;5110557;28;19908;-68
2021/06/27 11:31:14;;;;;;;;;;;29.10;99.90;;;;;;5110716;28;19912;-67
2021/06/27 11:33:40;;;;;;;;;;;29.40;99.90;;;;;;5108451;28;20361;-68
2021/06/27 11:36:23;;;;;;;;;;;29.50;99.90;;;;;;5110672;28;19926;-70
2021/06/27 11:38:49;;;;;;;;;;;29.30;99.90;;;;;;5103104;28;20365;-68
2021/06/27 11:41:18;;;;;;;;;;;29.30;99.90;;;;;;5109959;28;19931;-68
2021/06/27 11:43:53;;;;;;;;;;;29.00;99.90;;;;;;5110975;28;19912;-68
2021/06/27 11:46:28;;;;;;;;;;;28.80;99.90;;;;;;5093265;28;20415;-70
2021/06/27 11:48:54;;;;;;;;;;;28.80;99.90;;;;;;5111372;28;19908;-68
2021/06/27 11:51:19;;;;;;;;;;;28.90;99.90;;;;;;5093710;28;19912;-69
2021/06/27 11:53:45;;;;;;;;;;;28.90;99.90;;;;;;5112838;28;20007;-69
2021/06/27 11:56:17;;;;;;;;;;;28.90;99.90;;;;;;5111061;28;20373;-68
2021/06/27 11:58:43;;;;;;;;;;;28.80;99.90;;;;;;5112989;28;19912;-67
2021/06/27 12:01:11;;;;;;;;;;;28.70;99.90;;;;;;5113606;28;19935;-69
2021/06/27 12:03:46;;;;;;;;;;;28.50;99.90;;;;;;5116280;28;19908;-69
2021/06/27 12:06:12;;;;;;;;;;;28.50;99.90;;;;;;5111845;28;20009;-70
2021/06/27 12:08:42;;;;;;;;;;;28.40;99.90;;;;;;5111531;28;19929;-69
2021/06/27 12:11:07;;;;;;;;;;;28.50;99.90;;;;;;5100518;28;19908;-68
2021/06/27 12:13:35;;;;;;;;;;;28.50;99.90;;;;;;5091372;28;19915;-69
2021/06/27 12:16:01;;;;;;;;;;;28.40;99.90;;;;;;5090996;28;19908;-69
2021/06/27 12:18:28;;;;;;;;;;;28.30;99.90;;;;;;5110259;28;20375;-70
2021/06/27 12:21:07;;;;;;;;;;;28.30;99.90;;;;;;5114064;28;19911;-70
2021/06/27 12:23:34;;;;;;;;;;;28.30;99.90;;;;;;5115284;28;20404;-68
2021/06/27 12:26:01;;;;;;;;;;;28.30;99.90;;;;;;5115601;28;20018;-70
2021/06/27 12:28:29;;;;;;;;;;;28.40;99.90;;;;;;5095779;28;19912;-70
2021/06/27 12:30:55;;;;;;;;;;;28.40;99.90;;;;;;5096553;28;20401;-70
2021/06/27 12:33:28;;;;;;;;;;;28.30;99.90;;;;;;5115183;28;19955;-68
2021/06/27 12:35:58;;;;;;;;;;;28.50;99.90;;;;;;5112842;28;19934;-69
2021/06/27 12:38:24;;;;;;;;;;;28.50;99.90;;;;;;5101040;28;20353;-68
2021/06/27 12:40:51;;;;;;;;;;;28.60;99.90;;;;;;5107004;28;19922;-68
2021/06/27 12:43:19;;;;;;;;;;;28.60;99.90;;;;;;5115048;28;19958;-69
2021/06/27 12:45:45;;;;;;;;;;;28.70;99.90;;;;;;5114177;28;19926;-69
2021/06/27 12:48:11;;;;;;;;;;;28.60;99.90;;;;;;5114211;28;19911;-70
2021/06/27 12:50:38;;;;;;;;;;;28.60;99.90;;;;;;5114783;28;19939;-68
2021/06/27 12:53:05;;;;;;;;;;;28.70;99.90;;;;;;5115120;28;20289;-69
2021/06/27 12:55:31;;;;;;;;;;;28.70;99.90;;;;;;5110027;28;20332;-68
2021/06/27 12:57:57;;;;;;;;;;;28.70;99.90;;;;;;5113149;28;19950;-69
2021/06/27 13:00:23;;;;;;;;;;;28.70;99.90;;;;;;5114593;28;19935;-69
2021/06/27 13:02:49;;;;;;;;;;;28.70;99.90;;;;;;5114441;28;19940;-69
2021/06/27 13:05:17;;;;;;;;;;;28.70;99.90;;;;;;5114365;28;20291;-67
2021/06/27 13:07:45;;;;;;;;;;;28.70;99.90;;;;;;5110501;28;20383;-68
2021/06/27 13:10:13;;;;;;;;;;;28.50;99.90;;;;;;5110039;28;20341;-69
2021/06/27 13:12:41;;;;;;;;;;;28.50;99.90;;;;;;5113816;28;20259;-68
2021/06/27 13:15:09;;;;;;;;;;;28.70;99.90;;;;;;5113913;28;19911;-69
2021/06/27 13:17:42;;;;;;;;;;;28.70;99.90;;;;;;5095616;28;20282;-69
2021/06/27 13:20:18;;;;;;;;;;;28.70;99.90;;;;;;5099581;28;19951;-68
2021/06/27 13:23:02;;;;;;;;;;;28.70;99.90;;;;;;5110729;28;19908;-69
2021/06/27 13:25:34;;;;;;;;;;;28.80;99.90;;;;;;5119711;27;19922;-69
2021/06/27 13:27:59;;;;;;;;;;;28.70;99.90;;;;;;5114191;28;19915;-67
2021/06/27 13:30:26;;;;;;;;;;;28.70;99.90;;;;;;5114557;28;19966;-68
2021/06/27 13:33:07;;;;;;;;;;;28.70;99.90;;;;;;5113505;28;19912;-70
2021/06/27 13:35:40;;;;;;;;;;;28.80;99.90;;;;;;5096254;28;19908;-68
2021/06/27 13:38:07;;;;;;;;;;;28.90;99.90;;;;;;5110556;28;19920;-69
2021/06/27 13:40:33;;;;;;;;;;;29.00;99.90;;;;;;5111980;28;19955;-68
2021/06/27 13:42:59;;;;;;;;;;;28.90;99.90;;;;;;5121449;27;19927;-68
2021/06/27 13:45:25;;;;;;;;;;;28.70;99.90;;;;;;5113880;28;19912;-68
2021/06/27 13:47:52;;;;;;;;;;;28.70;99.90;;;;;;5113208;28;19908;-68
2021/06/27 13:50:18;;;;;;;;;;;28.80;99.90;;;;;;5113220;28;19912;-67
2021/06/27 13:52:44;;;;;;;;;;;29.10;99.90;;;;;;5107523;28;19912;-68
2021/06/27 13:55:10;;;;;;;;;;;29.20;99.90;;;;;;5095559;28;19970;-69
2021/06/27 13:57:36;;;;;;;;;;;29.30;99.90;;;;;;5112891;28;19911;-70
2021/06/27 14:00:03;;;;;;;;;;;29.20;99.90;;;;;;5114286;27;19912;-69
2021/06/27 14:02:28;;;;;;;;;;;29.10;99.90;;;;;;5120088;27;19934;-69
2021/06/27 14:04:54;;;;;;;;;;;29.20;99.90;;;;;;5113037;28;20409;-67
2021/06/27 14:07:19;;;;;;;;;;;29.10;99.90;;;;;;5111086;28;19968;-70
2021/06/27 14:09:45;;;;;;;;;;;29.00;99.90;;;;;;5113065;28;19952;-70
2021/06/27 14:12:11;;;;;;;;;;;29.10;99.90;;;;;;5112980;28;19940;-70
2021/06/27 14:14:36;;;;;;;;;;;29.20;99.90;;;;;;5113108;28;19908;-71